createdAt,value
2018-03-06T00:00:30.481Z,-0.70
2018-03-06T00:02:56.926Z,-0.70
2018-03-06T00:05:23.380Z,-0.70
2018-03-06T00:07:49.824Z,-0.70
2018-03-06T00:10:17.074Z,-0.70
2018-03-06T00:12:43.541Z,-0.70
2018-03-06T00:15:10.932Z,-0.70
2018-03-06T00:17:37.365Z,-0.70
2018-03-06T00:20:05.414Z,-0.70
2018-03-06T00:22:31.847Z,-0.80
2018-03-06T00:24:58.323Z,-0.80
2018-03-06T00:27:24.755Z,-0.80
2018-03-06T00:29:51.951Z,-0.80
2018-03-06T00:32:19.035Z,-0.80
2018-03-06T00:34:45.536Z,-0.80
2018-03-06T00:37:12.700Z,-0.90
2018-03-06T00:39:39.168Z,-0.90
2018-03-06T00:42:05.581Z,-0.90
2018-03-06T00:44:32.123Z,-0.90
2018-03-06T00:46:58.529Z,-0.90
2018-03-06T00:49:24.996Z,-0.90
2018-03-06T00:51:51.417Z,-0.90
2018-03-06T00:54:17.861Z,-0.90
2018-03-06T00:56:45.301Z,-1.00
2018-03-06T00:59:11.854Z,-1.00
2018-03-06T01:01:42.557Z,-1.00
2018-03-06T01:04:10.089Z,-1.00
2018-03-06T01:06:37.372Z,-1.00
2018-03-06T01:09:04.573Z,-1.10
2018-03-06T01:11:31.363Z,-1.10
2018-03-06T01:13:57.889Z,-1.10
2018-03-06T01:16:24.457Z,-1.10
2018-03-06T01:18:51.341Z,-1.10
2018-03-06T01:21:17.937Z,-1.10
2018-03-06T01:23:44.383Z,-1.10
2018-03-06T01:26:10.857Z,-1.10
2018-03-06T01:28:37.570Z,-1.20
2018-03-06T01:31:04.020Z,-1.20
2018-03-06T01:33:30.700Z,-1.20
2018-03-06T01:35:57.907Z,-1.20
2018-03-06T01:38:24.368Z,-1.20
2018-03-06T01:40:50.852Z,-1.20
2018-03-06T01:43:17.332Z,-1.20
2018-03-06T01:45:43.820Z,-1.20
2018-03-06T01:48:10.264Z,-1.30
2018-03-06T01:50:37.075Z,-1.20
2018-03-06T01:53:03.551Z,-1.20
2018-03-06T01:55:30.017Z,-1.20
2018-03-06T01:57:56.457Z,-1.30
2018-03-06T02:00:24.981Z,-1.30
2018-03-06T02:02:52.293Z,-1.30
2018-03-06T02:05:20.489Z,-1.30
2018-03-06T02:07:47.956Z,-1.40
2018-03-06T02:10:14.453Z,-1.40
2018-03-06T02:12:41.705Z,-1.40
2018-03-06T02:15:08.175Z,-1.40
2018-03-06T02:17:38.528Z,-1.40
2018-03-06T02:20:05.024Z,-1.50
2018-03-06T02:22:36.244Z,-1.50
2018-03-06T02:25:03.495Z,-1.50
2018-03-06T02:27:29.928Z,-1.50
2018-03-06T02:29:56.405Z,-1.50
2018-03-06T02:32:23.559Z,-1.60
2018-03-06T02:34:50.024Z,-1.60
2018-03-06T02:37:16.426Z,-1.60
2018-03-06T02:39:42.907Z,-1.60
2018-03-06T02:42:09.345Z,-1.50
2018-03-06T02:44:37.067Z,-1.50
2018-03-06T02:47:05.062Z,-1.60
2018-03-06T02:49:34.295Z,-1.60
2018-03-06T02:52:00.756Z,-1.60
2018-03-06T02:54:27.932Z,-1.70
2018-03-06T02:56:56.284Z,-1.70
2018-03-06T02:59:23.711Z,-1.70
2018-03-06T03:01:50.993Z,-1.70
2018-03-06T03:04:17.448Z,-1.70
2018-03-06T03:06:43.904Z,-1.70
2018-03-06T03:12:30.036Z,-1.80
2018-03-06T03:14:58.312Z,-1.80
2018-03-06T03:17:25.672Z,-1.70
2018-03-06T03:19:52.164Z,-1.80
2018-03-06T03:22:20.214Z,-1.80
2018-03-06T03:24:46.655Z,-1.80
2018-03-06T03:27:13.133Z,-1.80
2018-03-06T03:29:39.761Z,-1.80
2018-03-06T03:32:06.209Z,-1.90
2018-03-06T03:34:33.462Z,-1.90
2018-03-06T03:36:59.917Z,-1.90
2018-03-06T03:39:30.538Z,-1.90
2018-03-06T03:41:56.998Z,-1.90
2018-03-06T03:44:25.475Z,-1.90
2018-03-06T03:46:51.900Z,-1.90
2018-03-06T03:49:18.354Z,-1.90
2018-03-06T03:51:44.780Z,-1.90
2018-03-06T03:54:11.252Z,-2.00
2018-03-06T03:56:37.690Z,-2.00
2018-03-06T03:59:04.871Z,-2.00
2018-03-06T04:01:31.284Z,-2.00
2018-03-06T04:03:57.759Z,-2.00
2018-03-06T04:06:24.213Z,-2.00
2018-03-06T04:08:51.437Z,-2.00
2018-03-06T04:11:17.888Z,-2.00
2018-03-06T04:13:45.097Z,-2.00
2018-03-06T04:16:11.534Z,-2.00
2018-03-06T04:18:37.982Z,-2.00
2018-03-06T04:21:04.456Z,-2.10
2018-03-06T04:23:30.913Z,-2.00
2018-03-06T04:25:58.093Z,-2.10
2018-03-06T04:28:24.556Z,-2.10
2018-03-06T04:30:50.988Z,-2.00
2018-03-06T04:33:17.446Z,-2.10
2018-03-06T04:35:43.880Z,-2.00
2018-03-06T04:38:10.326Z,-2.10
2018-03-06T04:40:37.530Z,-2.10
2018-03-06T04:43:04.006Z,-2.20
2018-03-06T04:45:30.442Z,-2.10
2018-03-06T04:47:56.895Z,-2.10
2018-03-06T04:50:23.339Z,-2.10
2018-03-06T04:52:49.809Z,-2.10
2018-03-06T04:55:16.240Z,-2.20
2018-03-06T04:57:42.701Z,-2.20
2018-03-06T05:00:09.160Z,-2.20
2018-03-06T05:02:36.357Z,-2.20
2018-03-06T05:05:02.820Z,-2.20
2018-03-06T05:07:29.285Z,-2.20
2018-03-06T05:09:55.736Z,-2.20
2018-03-06T05:12:22.265Z,-2.20
2018-03-06T05:14:48.737Z,-2.20
2018-03-06T05:17:15.187Z,-2.20
2018-03-06T05:19:41.632Z,-2.20
2018-03-06T05:22:08.089Z,-2.20
2018-03-06T05:24:35.268Z,-2.20
2018-03-06T05:27:01.752Z,-2.20
2018-03-06T05:29:28.928Z,-2.20
2018-03-06T05:31:55.419Z,-2.20
2018-03-06T05:34:21.850Z,-2.20
2018-03-06T05:36:48.322Z,-2.20
2018-03-06T05:39:15.540Z,-2.20
2018-03-06T05:41:41.981Z,-2.20
2018-03-06T05:44:08.396Z,-2.20
2018-03-06T05:46:34.872Z,-2.20
2018-03-06T05:49:02.295Z,-2.20
2018-03-06T05:51:29.536Z,-2.30
2018-03-06T05:53:55.975Z,-2.30
2018-03-06T05:56:22.449Z,-2.30
2018-03-06T05:58:48.884Z,-2.30
2018-03-06T06:01:15.355Z,-2.30
2018-03-06T06:03:41.802Z,-2.30
2018-03-06T06:06:08.342Z,-2.20
2018-03-06T06:08:35.721Z,-2.20
2018-03-06T06:11:02.383Z,-2.30
2018-03-06T06:13:29.016Z,-2.20
2018-03-06T06:15:55.526Z,-2.20
2018-03-06T06:18:22.002Z,-2.20
2018-03-06T06:20:48.851Z,-2.20
2018-03-06T06:23:16.091Z,-2.20
2018-03-06T06:25:42.836Z,-2.10
2018-03-06T06:28:10.007Z,-2.10
2018-03-06T06:30:37.440Z,-2.00
2018-03-06T06:33:04.558Z,-2.00
2018-03-06T06:35:31.129Z,-1.90
2018-03-06T06:37:58.175Z,-1.90
2018-03-06T06:40:24.729Z,-1.90
2018-03-06T06:42:51.412Z,-1.80
2018-03-06T06:45:18.064Z,-1.70
2018-03-06T06:47:44.504Z,-1.70
2018-03-06T06:50:10.993Z,-1.60
2018-03-06T06:52:38.136Z,-1.50
2018-03-06T06:55:04.590Z,-1.40
2018-03-06T06:57:31.824Z,-1.30
2018-03-06T06:59:58.250Z,-1.30
2018-03-06T07:02:24.655Z,-1.20
2018-03-06T07:04:51.107Z,-1.10
2018-03-06T07:07:17.536Z,-1.00
2018-03-06T07:09:44.765Z,-0.80
2018-03-06T07:12:11.227Z,-0.80
2018-03-06T07:14:37.651Z,-0.70
2018-03-06T07:17:04.089Z,-0.50
2018-03-06T07:19:30.587Z,-0.40
2018-03-06T07:21:57.884Z,-0.30
2018-03-06T07:24:24.304Z,-0.20
2018-03-06T07:26:50.724Z,-0.10
2018-03-06T07:29:17.184Z,0.00
2018-03-06T07:31:43.612Z,0.10
2018-03-06T07:34:10.060Z,0.20
2018-03-06T07:36:37.261Z,0.30
2018-03-06T07:39:03.862Z,0.30
2018-03-06T07:41:30.307Z,0.40
2018-03-06T07:43:57.508Z,0.60
2018-03-06T07:46:23.940Z,0.60
2018-03-06T07:48:50.389Z,0.70
2018-03-06T07:51:16.808Z,0.90
2018-03-06T07:53:43.241Z,1.10
2018-03-06T07:56:09.702Z,1.20
2018-03-06T07:58:36.184Z,1.30
2018-03-06T08:01:02.647Z,1.50
2018-03-06T08:03:29.118Z,1.60
2018-03-06T08:05:55.553Z,1.80
2018-03-06T08:08:21.990Z,1.90
2018-03-06T08:10:48.433Z,2.00
2018-03-06T08:13:15.636Z,2.20
2018-03-06T08:15:42.056Z,2.20
2018-03-06T08:18:08.528Z,2.40
2018-03-06T08:20:34.953Z,2.50
2018-03-06T08:23:01.401Z,2.70
2018-03-06T08:25:27.810Z,2.70
2018-03-06T08:27:58.054Z,2.80
2018-03-06T08:30:24.468Z,2.80
2018-03-06T08:32:50.949Z,2.90
2018-03-06T08:35:17.386Z,3.00
2018-03-06T08:37:43.891Z,3.00
2018-03-06T08:40:10.338Z,3.00
2018-03-06T08:42:38.290Z,3.10
2018-03-06T08:45:04.734Z,3.10
2018-03-06T08:47:31.194Z,3.30
2018-03-06T08:49:58.385Z,3.60
2018-03-06T08:52:24.871Z,3.50
2018-03-06T08:54:51.263Z,3.80
2018-03-06T08:57:17.681Z,3.90
2018-03-06T08:59:44.133Z,4.00
2018-03-06T09:02:10.605Z,4.20
2018-03-06T09:04:37.019Z,4.40
2018-03-06T09:07:03.480Z,4.60
2018-03-06T09:09:29.903Z,4.80
2018-03-06T09:11:57.124Z,5.30
2018-03-06T09:14:23.558Z,5.30
2018-03-06T09:16:50.010Z,5.50
2018-03-06T09:19:16.459Z,5.90
2018-03-06T09:21:45.749Z,6.20
2018-03-06T09:24:12.148Z,6.20
2018-03-06T09:26:38.577Z,6.30
2018-03-06T09:29:04.976Z,6.40
2018-03-06T09:31:31.420Z,6.50
2018-03-06T09:33:58.571Z,6.90
2018-03-06T09:36:25.753Z,7.10
2018-03-06T09:38:52.190Z,7.00
2018-03-06T09:41:18.668Z,7.20
2018-03-06T09:43:45.079Z,7.30
2018-03-06T09:46:11.537Z,7.40
2018-03-06T09:48:38.708Z,7.50
2018-03-06T09:51:05.200Z,7.50
2018-03-06T09:53:31.625Z,7.60
2018-03-06T09:55:58.114Z,7.50
2018-03-06T09:58:25.280Z,7.60
2018-03-06T10:00:52.457Z,7.60
2018-03-06T10:03:18.892Z,7.60
2018-03-06T10:05:45.328Z,7.70
2018-03-06T10:08:11.783Z,7.50
2018-03-06T10:10:39.005Z,7.50
2018-03-06T10:13:05.432Z,7.50
2018-03-06T10:15:31.887Z,7.50
2018-03-06T10:17:58.308Z,7.60
2018-03-06T10:20:24.736Z,7.70
2018-03-06T10:22:51.128Z,7.80
2018-03-06T10:25:17.569Z,7.80
2018-03-06T10:27:43.980Z,7.90
2018-03-06T10:30:10.400Z,8.00
2018-03-06T10:32:36.796Z,7.90
2018-03-06T10:35:03.244Z,8.00
2018-03-06T10:37:29.672Z,8.00
2018-03-06T10:39:56.143Z,8.00
2018-03-06T10:42:22.576Z,7.90
2018-03-06T10:44:49.906Z,7.60
2018-03-06T10:47:16.313Z,7.50
2018-03-06T10:49:43.504Z,7.60
2018-03-06T10:52:09.914Z,7.60
2018-03-06T10:54:36.317Z,7.80
2018-03-06T10:57:03.472Z,8.00
2018-03-06T10:59:29.896Z,7.90
2018-03-06T11:01:57.098Z,8.10
2018-03-06T11:04:23.538Z,8.10
2018-03-06T11:06:49.943Z,8.10
2018-03-06T11:09:16.431Z,8.10
2018-03-06T11:11:42.887Z,8.10
2018-03-06T11:14:09.371Z,8.10
2018-03-06T11:16:36.033Z,8.00
2018-03-06T11:19:02.476Z,8.00
2018-03-06T11:21:28.998Z,7.90
2018-03-06T11:23:55.440Z,7.80
2018-03-06T11:26:21.837Z,7.90
2018-03-06T11:28:48.299Z,7.90
2018-03-06T11:31:14.745Z,7.90
2018-03-06T11:33:41.182Z,8.00
2018-03-06T11:36:07.724Z,8.00
2018-03-06T11:38:34.167Z,8.10
2018-03-06T11:41:00.588Z,8.10
2018-03-06T11:43:27.021Z,8.10
2018-03-06T11:45:53.468Z,8.10
2018-03-06T11:48:19.936Z,8.20
2018-03-06T11:50:46.397Z,8.40
2018-03-06T11:53:12.864Z,8.60
2018-03-06T11:55:39.288Z,8.80
2018-03-06T11:58:05.734Z,8.90
2018-03-06T12:00:32.153Z,9.00
2018-03-06T12:02:58.600Z,9.00
2018-03-06T12:05:25.126Z,9.10
2018-03-06T12:07:51.577Z,9.20
2018-03-06T12:10:18.202Z,9.20
2018-03-06T12:12:44.665Z,9.30
2018-03-06T12:15:11.827Z,9.50
2018-03-06T12:17:38.320Z,9.50
2018-03-06T12:20:04.889Z,9.50
2018-03-06T12:22:31.301Z,9.60
2018-03-06T12:24:57.876Z,9.50
2018-03-06T12:27:25.041Z,9.60
2018-03-06T12:29:52.196Z,9.60
2018-03-06T12:32:18.635Z,9.60
2018-03-06T12:34:45.087Z,9.60
2018-03-06T12:37:11.526Z,9.70
2018-03-06T12:39:37.983Z,9.70
2018-03-06T12:42:04.453Z,9.70
2018-03-06T12:44:32.586Z,9.80
2018-03-06T12:46:59.781Z,9.80
2018-03-06T12:49:27.091Z,9.80
2018-03-06T12:51:53.480Z,9.70
2018-03-06T12:54:19.914Z,9.80
2018-03-06T12:56:46.381Z,9.80
2018-03-06T12:59:12.825Z,9.80
2018-03-06T13:01:39.225Z,9.80
2018-03-06T13:04:06.404Z,9.80
2018-03-06T13:06:32.836Z,9.80
2018-03-06T13:09:00.100Z,9.80
2018-03-06T13:11:26.517Z,9.80
2018-03-06T13:13:52.965Z,9.80
2018-03-06T13:16:19.409Z,9.80
2018-03-06T13:18:45.836Z,9.80
2018-03-06T13:21:12.262Z,9.70
2018-03-06T13:23:38.701Z,9.70
2018-03-06T13:26:05.152Z,9.60
2018-03-06T13:28:31.606Z,9.60
2018-03-06T13:30:58.775Z,9.60
2018-03-06T13:33:25.217Z,9.60
2018-03-06T13:35:51.609Z,9.70
2018-03-06T13:38:18.795Z,9.60
2018-03-06T13:40:45.981Z,9.70
2018-03-06T13:43:12.476Z,9.60
2018-03-06T13:45:39.621Z,9.80
2018-03-06T13:48:06.048Z,9.80
2018-03-06T13:50:33.279Z,9.90
2018-03-06T13:53:00.540Z,9.80
2018-03-06T13:55:26.933Z,9.80
2018-03-06T13:57:53.390Z,9.80
2018-03-06T14:00:19.834Z,9.80
2018-03-06T14:02:50.164Z,9.70
2018-03-06T14:05:18.065Z,9.70
2018-03-06T14:07:44.512Z,9.70
2018-03-06T14:10:10.944Z,9.70
2018-03-06T14:12:37.405Z,9.70
2018-03-06T14:15:03.837Z,9.70
2018-03-06T14:17:30.263Z,9.60
2018-03-06T14:19:56.682Z,9.50
2018-03-06T14:22:23.122Z,9.50
2018-03-06T14:24:49.574Z,9.50
2018-03-06T14:27:16.009Z,9.40
2018-03-06T14:29:42.416Z,9.40
2018-03-06T14:32:08.944Z,9.40
2018-03-06T14:34:35.404Z,9.40
2018-03-06T14:37:01.844Z,9.30
2018-03-06T14:39:28.274Z,9.30
2018-03-06T14:41:54.729Z,9.20
2018-03-06T14:44:21.169Z,9.20
2018-03-06T14:46:47.655Z,9.10
2018-03-06T14:49:14.088Z,9.00
2018-03-06T14:51:41.253Z,8.80
2018-03-06T14:54:07.658Z,8.80
2018-03-06T14:56:34.854Z,8.70
2018-03-06T14:59:01.312Z,8.70
2018-03-06T15:01:27.772Z,8.70
2018-03-06T15:03:54.955Z,8.60
2018-03-06T15:06:21.388Z,8.60
2018-03-06T15:08:47.805Z,8.60
2018-03-06T15:11:15.114Z,8.50
2018-03-06T15:13:41.591Z,8.50
2018-03-06T15:16:08.057Z,8.40
2018-03-06T15:18:34.496Z,8.40
2018-03-06T15:21:00.988Z,8.40
2018-03-06T15:23:28.201Z,8.20
2018-03-06T15:25:54.619Z,8.20
2018-03-06T15:28:21.037Z,8.20
2018-03-06T15:30:47.479Z,8.10
2018-03-06T15:33:13.948Z,8.00
2018-03-06T15:35:40.378Z,8.00
2018-03-06T15:38:06.856Z,7.90
2018-03-06T15:40:34.169Z,7.80
2018-03-06T15:43:04.588Z,7.80
2018-03-06T15:45:31.043Z,7.70
2018-03-06T15:47:57.471Z,7.70
2018-03-06T15:50:23.883Z,7.60
2018-03-06T15:52:50.340Z,7.60
2018-03-06T15:55:16.815Z,7.50
2018-03-06T15:57:43.993Z,7.40
2018-03-06T16:00:10.436Z,7.40
2018-03-06T16:02:37.052Z,7.40
2018-03-06T16:05:03.545Z,7.40
2018-03-06T16:07:30.729Z,7.30
2018-03-06T16:09:57.372Z,7.30
2018-03-06T16:12:24.535Z,7.20
2018-03-06T16:14:50.978Z,7.10
2018-03-06T16:17:17.417Z,7.10
2018-03-06T16:19:43.831Z,7.00
2018-03-06T16:22:10.974Z,7.00
2018-03-06T16:24:38.163Z,6.90
2018-03-06T16:27:04.556Z,6.90
2018-03-06T16:29:31.007Z,6.90
2018-03-06T16:31:57.448Z,6.90
2018-03-06T16:34:23.888Z,6.80
2018-03-06T16:36:50.360Z,6.80
2018-03-06T16:39:16.768Z,6.70
2018-03-06T16:41:43.189Z,6.70
2018-03-06T16:44:09.638Z,6.60
2018-03-06T16:46:36.084Z,6.50
2018-03-06T16:49:02.621Z,6.50
2018-03-06T16:51:29.065Z,6.40
2018-03-06T16:53:55.512Z,6.30
2018-03-06T16:56:21.952Z,6.30
2018-03-06T16:58:49.116Z,6.10
2018-03-06T17:01:16.305Z,6.10
2018-03-06T17:03:42.739Z,6.10
2018-03-06T17:06:09.141Z,6.00
2018-03-06T17:08:36.345Z,5.90
2018-03-06T17:11:03.582Z,5.80
2018-03-06T17:13:30.110Z,5.80
2018-03-06T17:15:56.548Z,5.70
2018-03-06T17:18:23.004Z,5.60
2018-03-06T17:20:49.424Z,5.50
2018-03-06T17:23:16.872Z,5.50
2018-03-06T17:25:43.320Z,5.40
2018-03-06T17:28:09.923Z,5.30
2018-03-06T17:30:36.358Z,5.30
2018-03-06T17:33:03.658Z,5.20
2018-03-06T17:35:30.078Z,5.20
2018-03-06T17:37:56.525Z,5.20
2018-03-06T17:40:22.996Z,5.10
2018-03-06T17:42:49.432Z,5.10
2018-03-06T17:45:16.751Z,5.00
2018-03-06T17:47:43.219Z,5.00
2018-03-06T17:50:10.438Z,4.90
2018-03-06T17:52:37.892Z,4.90
2018-03-06T17:55:04.433Z,4.80
2018-03-06T17:57:30.922Z,4.80
2018-03-06T17:59:57.404Z,4.70
2018-03-06T18:02:23.857Z,4.70
2018-03-06T18:04:50.293Z,4.60
2018-03-06T18:07:16.818Z,4.60
2018-03-06T18:09:44.004Z,4.50
2018-03-06T18:12:10.802Z,4.50
2018-03-06T18:14:37.233Z,4.40
2018-03-06T18:17:03.685Z,4.40
2018-03-06T18:19:30.847Z,4.30
2018-03-06T18:21:57.352Z,4.30
2018-03-06T18:24:23.760Z,4.30
2018-03-06T18:26:50.231Z,4.20
2018-03-06T18:29:16.643Z,4.20
2018-03-06T18:31:43.340Z,4.20
2018-03-06T18:34:09.783Z,4.20
2018-03-06T18:36:36.949Z,4.10
2018-03-06T18:39:03.425Z,4.10
2018-03-06T18:41:29.870Z,4.20
2018-03-06T18:43:57.048Z,4.20
2018-03-06T18:46:24.270Z,4.20
2018-03-06T18:48:50.665Z,4.10
2018-03-06T18:51:17.123Z,4.20
2018-03-06T18:53:43.529Z,4.10
2018-03-06T18:56:10.017Z,4.10
2018-03-06T18:58:37.155Z,4.00
2018-03-06T19:04:20.127Z,4.00
2018-03-06T19:06:51.089Z,4.00
2018-03-06T19:09:17.505Z,4.00
2018-03-06T19:11:43.972Z,3.90
2018-03-06T19:14:10.426Z,3.90
2018-03-06T19:16:36.881Z,3.90
2018-03-06T19:19:04.097Z,3.80
2018-03-06T19:21:30.536Z,3.80
2018-03-06T19:23:56.950Z,3.80
2018-03-06T19:26:23.408Z,3.80
2018-03-06T19:28:49.824Z,3.80
2018-03-06T19:31:16.291Z,3.70
2018-03-06T19:33:42.712Z,3.70
2018-03-06T19:36:09.127Z,3.70
2018-03-06T19:38:35.568Z,3.70
2018-03-06T19:41:02.008Z,3.70
2018-03-06T19:43:28.404Z,3.70
2018-03-06T19:45:56.607Z,3.70
2018-03-06T19:48:23.043Z,3.70
2018-03-06T19:50:49.491Z,3.70
2018-03-06T19:53:15.927Z,3.70
2018-03-06T19:55:43.271Z,3.70
2018-03-06T19:58:09.692Z,3.70
2018-03-06T20:00:36.284Z,3.70
2018-03-06T20:03:02.742Z,3.60
2018-03-06T20:05:30.025Z,3.60
2018-03-06T20:10:53.648Z,3.60
2018-03-06T20:13:24.934Z,3.60
2018-03-06T20:15:51.493Z,3.60
2018-03-06T20:18:18.088Z,3.60
2018-03-06T20:20:44.707Z,3.60
2018-03-06T20:23:12.955Z,3.60
2018-03-06T20:25:45.665Z,3.50
2018-03-06T20:28:13.060Z,3.60
2018-03-06T20:30:45.729Z,3.60
2018-03-06T20:33:15.310Z,3.70
2018-03-06T20:35:41.854Z,3.70
2018-03-06T20:38:09.219Z,3.70
2018-03-06T20:40:36.559Z,3.70
2018-03-06T20:43:04.624Z,3.70
2018-03-06T20:48:33.464Z,3.70
2018-03-06T20:51:00.046Z,3.80
2018-03-06T20:53:32.659Z,3.80
2018-03-06T20:55:59.979Z,3.80
2018-03-06T20:58:26.551Z,3.80
2018-03-06T21:00:53.214Z,3.80
2018-03-06T21:03:19.787Z,3.80
2018-03-06T21:05:46.327Z,3.80
2018-03-06T21:08:13.084Z,3.80
2018-03-06T21:10:40.540Z,3.90
2018-03-06T21:13:08.028Z,3.90
2018-03-06T21:15:34.651Z,3.90
2018-03-06T21:18:01.269Z,4.00
2018-03-06T21:20:27.820Z,4.00
2018-03-06T21:22:54.399Z,4.10
2018-03-06T21:25:21.692Z,4.10
2018-03-06T21:27:49.249Z,4.10
2018-03-06T21:30:15.903Z,4.10
2018-03-06T21:32:42.477Z,4.10
2018-03-06T21:35:09.768Z,4.10
2018-03-06T21:37:36.325Z,4.10
2018-03-06T21:40:03.031Z,4.10
2018-03-06T21:42:29.700Z,4.10
2018-03-06T21:44:56.283Z,4.00
2018-03-06T21:47:23.619Z,4.00
2018-03-06T21:49:50.184Z,4.00
2018-03-06T21:52:16.884Z,4.10
2018-03-06T21:54:43.431Z,4.00
2018-03-06T21:57:10.027Z,4.00
2018-03-06T21:59:36.587Z,4.00
2018-03-06T22:02:03.206Z,4.00
2018-03-06T22:04:29.800Z,3.90
2018-03-06T22:06:57.139Z,3.90
2018-03-06T22:09:23.691Z,3.90
2018-03-06T22:11:50.329Z,3.80
2018-03-06T22:14:17.644Z,3.80
2018-03-06T22:16:44.283Z,3.80
2018-03-06T22:19:10.966Z,3.80
2018-03-06T22:21:38.347Z,3.80
2018-03-06T22:24:05.035Z,3.80
2018-03-06T22:26:32.376Z,3.90
2018-03-06T22:28:58.928Z,3.80
2018-03-06T22:31:25.499Z,3.90
2018-03-06T22:33:52.142Z,3.80
2018-03-06T22:36:18.746Z,3.80
2018-03-06T22:38:45.320Z,3.70
2018-03-06T22:41:12.619Z,3.60
2018-03-06T22:43:39.261Z,3.60
2018-03-06T22:46:06.037Z,3.60
2018-03-06T22:48:33.329Z,3.50
2018-03-06T22:50:59.886Z,3.50
2018-03-06T22:53:26.465Z,3.50
2018-03-06T22:55:53.106Z,3.40
2018-03-06T22:58:19.744Z,3.40
2018-03-06T23:00:47.368Z,3.40
2018-03-06T23:03:13.913Z,3.40
2018-03-06T23:05:40.499Z,3.40
2018-03-06T23:08:08.041Z,3.30
2018-03-06T23:10:35.477Z,3.40
2018-03-06T23:13:02.023Z,3.30
2018-03-06T23:15:28.642Z,3.30
2018-03-06T23:17:55.274Z,3.30
2018-03-06T23:20:21.906Z,3.30
2018-03-06T23:22:48.503Z,3.30
2018-03-06T23:25:15.161Z,3.40
2018-03-06T23:27:41.726Z,3.40
2018-03-06T23:30:08.327Z,3.50
2018-03-06T23:32:34.770Z,3.50
2018-03-06T23:35:02.011Z,3.50
2018-03-06T23:37:28.404Z,3.50
2018-03-06T23:39:54.799Z,3.50
2018-03-06T23:42:21.942Z,3.50
2018-03-06T23:44:48.443Z,3.50
2018-03-06T23:47:14.831Z,3.50
2018-03-06T23:49:41.988Z,3.60
2018-03-06T23:52:08.383Z,3.60
2018-03-06T23:54:36.287Z,3.60
2018-03-06T23:57:02.742Z,3.60
2018-03-06T23:59:29.150Z,3.70
